Sugar Land, TX

6:54 AM CST on March 02, 2015 (GMT -0600)
Sugar Land Municipal-Hull | Change Station
CLOSE
Current Station
Airport
Location: Houston Hull,
Elevation: 82 ft
Nearby Weather Stations

Elev 82 ft 29.62 °N, 95.66 °W | Updated 1 hour ago

Overcast
Overcast
48 °F
Feels Like 48 °F
N
9
Wind Variable Wind from North

Today
High -- | Low -- °F
--% Chance of Precip.
Yesterday
High -- | Low -- °F
Precip. -- in
6:47 AM 6:22 PM
Waxing Gibbous, 91% visible
Pressure 30.26 in
Visibility 5.0 miles
Clouds Overcast 300 ft
Dew Point 47 °F
Humidity 96%
Rainfall 0.00 in
Snow Depth Not available.
UV 0 out of 12
Pollen 6.40 out of 12
Air Quality Not available.
Flu Activity Not available.
METAR KSGR 021153Z 36008KT 5SM BR OVC003 09/08 A3025 RMK AO2 SLP246 70009 T00890083 10094 20089 53001

More Conditions Fewer Conditions

Pressure 30.26 in
Visibility 5.0 miles
Clouds Overcast 300 ft
Dew Point 47 °F
Humidity 96%
Rainfall 0.00 in
Snow Depth Not available.
UV 0 out of 12
Pollen 6.40 out of 12
Air Quality Not available.
Flu Activity Not available.
METAR KSGR 021153Z 36008KT 5SM BR OVC003 09/08 A3025 RMK AO2 SLP246 70009 T00890083 10094 20089 53001

More Conditions Fewer Conditions

10-Day Weather Forecast

Almanac

Astronomy

Mar. 02, 2015 Rise Set
Actual Time
Civil Twilight
Nautical Twilight
Astronomical Twilight
Moon
Length of Visible Light
Length of Day
Tomorrow will be .
, % of the Moon is Illuminated

Today's Extremes

State Highs State Lows

Community

WunderPhotos

Upload Photos

1,801,772 photos uploaded!

WunderBlogs® & News

Nearby

Air Quality

  Air Quality AQ Index Pollutant
Not available.

Snow Depth

Station Depth Elevation

Earthquake Activity

City Distance Mag. Time & Date
Minimum magnitude displayed is 2.5.

Coastal Water Temperatures

Place Temperature

Nearby Weather Stations